createdAt,value
2019-05-22T09:45:09.114Z,63.80
2019-05-22T09:47:37.747Z,66.60
2019-05-22T09:50:09.497Z,65.10
2019-05-22T09:52:38.035Z,64.90
2019-05-22T09:55:06.106Z,65.10
2019-05-22T09:57:35.643Z,63.80
2019-05-22T10:00:05.651Z,63.70
2019-05-22T10:02:33.727Z,64.70
2019-05-22T10:05:01.766Z,64.70
2019-05-22T10:07:30.100Z,65.60
2019-05-22T10:09:57.964Z,67.10
2019-05-22T10:12:26.202Z,66.10
2019-05-22T10:14:54.070Z,66.10
2019-05-22T10:17:22.030Z,66.80
2019-05-22T10:19:50.198Z,67.10
2019-05-22T10:22:18.912Z,67.10
2019-05-22T10:24:50.146Z,67.70
2019-05-22T10:27:18.010Z,66.90
2019-05-22T10:29:46.273Z,66.50
2019-05-22T10:32:14.488Z,65.40
2019-05-22T10:34:42.362Z,66.30
2019-05-22T10:37:10.794Z,66.60
2019-05-22T10:39:38.754Z,66.50
2019-05-22T10:42:06.825Z,67.20
2019-05-22T10:44:34.689Z,64.90
2019-05-22T10:47:03.227Z,66.00
2019-05-22T10:49:31.174Z,66.30
2019-05-22T10:51:59.073Z,65.00
2019-05-22T10:54:26.932Z,62.80
2019-05-22T10:56:54.816Z,63.00
2019-05-22T10:59:23.147Z,64.60
2019-05-22T11:01:51.197Z,64.00
2019-05-22T11:04:19.823Z,65.10
2019-05-22T11:06:47.878Z,63.60
2019-05-22T11:09:16.109Z,63.30
2019-05-22T11:11:43.979Z,63.40
2019-05-22T11:14:12.521Z,63.40
2019-05-22T11:16:40.687Z,62.40
2019-05-22T11:19:08.553Z,61.20
2019-05-22T11:21:37.287Z,60.50
2019-05-22T11:24:05.422Z,60.20
2019-05-22T11:26:33.495Z,60.40
2019-05-22T11:29:01.445Z,60.90
2019-05-22T11:31:29.587Z,61.10
2019-05-22T11:33:57.455Z,60.10
2019-05-22T11:36:25.796Z,59.80
2019-05-22T11:38:53.655Z,60.00
2019-05-22T11:41:21.717Z,60.20
2019-05-22T11:43:49.571Z,59.20
2019-05-22T11:46:17.694Z,59.20
2019-05-22T11:48:45.661Z,59.40
2019-05-22T11:51:14.005Z,59.50
2019-05-22T11:53:42.438Z,60.20
2019-05-22T11:56:10.303Z,59.10
2019-05-22T11:58:38.162Z,59.00
2019-05-22T12:01:06.602Z,57.90
2019-05-22T12:03:35.243Z,57.30
2019-05-22T12:06:04.081Z,56.10
2019-05-22T12:08:32.009Z,56.10
2019-05-22T12:11:00.036Z,56.40
2019-05-22T12:13:28.304Z,55.80
2019-05-22T12:15:56.263Z,55.90
2019-05-22T12:18:24.890Z,56.70
2019-05-22T12:20:52.963Z,55.40
2019-05-22T12:23:21.139Z,55.40
2019-05-22T12:25:49.006Z,56.40
2019-05-22T12:28:17.814Z,57.50
2019-05-22T12:30:46.460Z,56.40
2019-05-22T12:33:14.605Z,56.90
2019-05-22T12:35:43.279Z,57.30
2019-05-22T12:38:12.721Z,55.50
2019-05-22T12:40:41.641Z,58.60
2019-05-22T12:43:09.711Z,59.50
2019-05-22T12:45:37.579Z,60.30
2019-05-22T12:48:05.914Z,61.50
2019-05-22T12:50:34.347Z,62.50
2019-05-22T12:53:03.383Z,61.50
2019-05-22T12:55:31.968Z,61.70
2019-05-22T12:58:00.140Z,62.20
2019-05-22T13:00:28.562Z,63.10
2019-05-22T13:02:57.007Z,60.80
2019-05-22T13:05:25.339Z,62.40
2019-05-22T13:07:53.508Z,63.70
2019-05-22T13:10:22.339Z,60.40
2019-05-22T13:12:50.204Z,61.40
2019-05-22T13:15:18.578Z,60.30
2019-05-22T13:17:47.111Z,59.20
2019-05-22T13:20:16.445Z,56.60
2019-05-22T13:22:47.611Z,55.00
2019-05-22T13:25:16.829Z,55.20
2019-05-22T13:27:44.689Z,55.70
2019-05-22T13:30:14.308Z,55.30
2019-05-22T13:32:43.566Z,56.50
2019-05-22T13:35:13.541Z,57.10
2019-05-22T13:37:41.517Z,57.80
2019-05-22T13:40:26.439Z,58.20
2019-05-22T13:42:41.062Z,56.50
2019-05-22T13:47:38.296Z,55.70
2019-05-22T13:50:07.150Z,55.00
2019-05-22T13:52:35.362Z,55.10
2019-05-22T13:55:04.691Z,55.40
2019-05-22T13:57:32.840Z,55.70
2019-05-22T14:00:00.688Z,55.60
2019-05-22T14:02:29.362Z,55.80
2019-05-22T14:04:57.723Z,55.90
2019-05-22T14:07:26.348Z,57.20
2019-05-22T14:09:54.934Z,56.70
2019-05-22T14:12:22.810Z,56.70
2019-05-22T14:14:51.105Z,57.50
2019-05-22T14:17:18.982Z,58.10
2019-05-22T14:19:46.847Z,58.40
2019-05-22T14:22:14.714Z,58.20
2019-05-22T14:24:42.588Z,58.60
2019-05-22T14:27:10.452Z,57.50
2019-05-22T14:29:38.305Z,58.70
2019-05-22T14:32:08.459Z,58.20
2019-05-22T14:34:36.502Z,58.40
2019-05-22T14:37:05.135Z,58.60
2019-05-22T14:39:33.026Z,59.00
2019-05-22T14:42:01.459Z,59.50
2019-05-22T14:44:29.332Z,59.80
2019-05-22T14:47:10.633Z,60.50
2019-05-22T14:49:27.114Z,60.30
2019-05-22T14:51:55.350Z,59.70
2019-05-22T14:54:23.508Z,60.00
2019-05-22T14:56:51.447Z,59.80
2019-05-22T14:59:19.682Z,60.60
2019-05-22T15:01:47.547Z,60.70
2019-05-22T15:04:15.584Z,60.30
2019-05-22T15:06:43.556Z,61.10
2019-05-22T15:09:11.809Z,61.10
2019-05-22T15:11:39.853Z,61.50
2019-05-22T15:14:07.715Z,61.60
2019-05-22T15:16:35.790Z,62.00
2019-05-22T15:19:03.761Z,61.30
2019-05-22T15:21:31.699Z,60.70
2019-05-22T15:23:59.839Z,61.00
2019-05-22T15:26:28.173Z,62.60
2019-05-22T15:28:56.238Z,61.70
2019-05-22T15:31:24.313Z,62.40
2019-05-22T15:33:52.654Z,62.90
2019-05-22T15:36:22.695Z,63.50
2019-05-22T15:38:50.558Z,63.60
2019-05-22T15:41:18.451Z,63.20
2019-05-22T15:43:52.528Z,61.10
2019-05-22T15:46:18.591Z,60.50
2019-05-22T15:48:47.443Z,60.30
2019-05-22T15:51:16.784Z,60.70
2019-05-22T15:53:45.319Z,61.30
2019-05-22T15:56:13.454Z,60.90
2019-05-22T15:58:42.806Z,61.30
2019-05-22T16:01:12.926Z,61.90
2019-05-22T16:03:42.276Z,62.40
2019-05-22T16:06:10.545Z,62.50
2019-05-22T16:08:38.532Z,63.20
2019-05-22T16:11:08.727Z,63.20
2019-05-22T16:13:38.247Z,63.80
2019-05-22T16:16:06.493Z,61.70
2019-05-22T16:18:35.531Z,61.40
2019-05-22T16:21:04.786Z,62.00
2019-05-22T16:23:34.371Z,60.20
2019-05-22T16:26:03.688Z,60.70
2019-05-22T16:28:35.987Z,61.20
2019-05-22T16:31:04.777Z,61.00
2019-05-22T16:33:33.212Z,61.30
2019-05-22T16:36:01.356Z,59.90
2019-05-22T16:38:29.236Z,59.90
2019-05-22T16:40:57.302Z,59.60
2019-05-22T16:43:45.443Z,58.50
2019-05-22T16:45:56.013Z,57.90
2019-05-22T16:48:29.010Z,58.10
2019-05-22T16:50:55.043Z,58.40
2019-05-22T16:53:23.309Z,58.60
2019-05-22T16:55:51.678Z,59.10
2019-05-22T16:58:19.820Z,58.80
2019-05-22T17:00:49.460Z,59.60
2019-05-22T17:03:18.220Z,60.10
2019-05-22T17:05:46.260Z,59.50
2019-05-22T17:08:15.031Z,59.70
2019-05-22T17:10:43.310Z,60.80
2019-05-22T17:13:12.650Z,60.40
2019-05-22T17:15:40.521Z,60.00
2019-05-22T17:18:09.259Z,60.50
2019-05-22T17:20:37.700Z,60.50
2019-05-22T17:23:05.939Z,60.20
2019-05-22T17:25:33.970Z,60.70
2019-05-22T17:28:02.428Z,60.10
2019-05-22T17:30:30.273Z,60.90
2019-05-22T17:32:59.349Z,60.90
2019-05-22T17:35:28.055Z,59.50
2019-05-22T17:37:57.329Z,59.40
2019-05-22T17:40:25.859Z,59.50
2019-05-22T17:42:55.122Z,60.00
2019-05-22T17:45:25.664Z,60.50
2019-05-22T17:47:54.608Z,61.20
2019-05-22T17:50:26.897Z,61.50
2019-05-22T17:52:53.552Z,61.60
2019-05-22T17:55:21.592Z,62.60
2019-05-22T17:57:49.482Z,61.80
2019-05-22T18:00:32.631Z,61.70
2019-05-22T18:03:01.196Z,61.90
2019-05-22T18:05:29.242Z,62.10
2019-05-22T18:07:57.373Z,62.40
2019-05-22T18:10:25.812Z,63.30
2019-05-22T18:12:53.682Z,63.40
2019-05-22T18:15:21.728Z,64.10
2019-05-22T18:17:50.162Z,64.70
2019-05-22T18:20:19.125Z,65.10
2019-05-22T18:22:47.101Z,65.60
2019-05-22T18:25:15.221Z,65.30
2019-05-22T18:27:43.565Z,65.10
2019-05-22T18:30:11.729Z,66.00
2019-05-22T18:32:41.171Z,66.20
2019-05-22T18:35:09.227Z,66.70
2019-05-22T18:37:37.115Z,67.10
2019-05-22T18:40:06.165Z,67.50
2019-05-22T18:42:34.317Z,68.30
2019-05-22T18:45:02.348Z,68.40
2019-05-22T18:47:30.436Z,68.90
2019-05-22T18:49:58.287Z,69.70
2019-05-22T18:52:39.847Z,69.70
2019-05-22T18:54:55.830Z,70.00
2019-05-22T18:57:24.059Z,70.20
2019-05-22T18:59:59.582Z,71.00
2019-05-22T19:02:21.650Z,71.90
2019-05-22T19:04:49.615Z,71.90
2019-05-22T19:07:17.485Z,71.30
2019-05-22T19:09:45.552Z,71.30
2019-05-22T19:12:13.734Z,71.50
2019-05-22T19:14:41.605Z,72.40
2019-05-22T19:17:09.638Z,70.90
2019-05-22T19:19:38.479Z,71.30
2019-05-22T19:22:06.334Z,72.20
2019-05-22T19:24:34.211Z,72.30
2019-05-22T19:27:02.067Z,72.20
2019-05-22T19:29:30.268Z,72.50
2019-05-22T19:31:58.094Z,72.50
2019-05-22T19:34:26.336Z,72.20
2019-05-22T19:36:54.204Z,72.20
2019-05-22T19:39:22.075Z,72.40
2019-05-22T19:42:01.980Z,72.80
2019-05-22T19:44:20.533Z,73.20
2019-05-22T19:46:49.493Z,73.50
2019-05-22T19:49:17.838Z,74.00
2019-05-22T19:51:46.170Z,74.40
2019-05-22T19:54:14.415Z,74.30
2019-05-22T19:56:42.863Z,74.50
2019-05-22T19:59:11.403Z,74.70
2019-05-22T20:01:40.045Z,75.10
2019-05-22T20:04:07.912Z,75.70
2019-05-22T20:06:38.234Z,75.80
2019-05-22T20:09:07.629Z,76.00
2019-05-22T20:11:35.499Z,76.40
2019-05-22T20:14:03.739Z,76.90
2019-05-22T20:16:31.625Z,77.30
2019-05-22T20:18:59.838Z,77.60
2019-05-22T20:21:28.178Z,78.10
2019-05-22T20:23:56.039Z,79.00
2019-05-22T20:26:24.377Z,79.30
2019-05-22T20:28:52.325Z,79.70
2019-05-22T20:31:20.462Z,80.40
2019-05-22T20:33:48.398Z,80.60
2019-05-22T20:36:17.035Z,80.30
2019-05-22T20:38:45.613Z,80.70
2019-05-22T20:41:13.470Z,80.60
2019-05-22T20:43:41.540Z,80.50
2019-05-22T20:46:09.588Z,81.10
2019-05-22T20:48:38.336Z,81.00
2019-05-22T20:51:07.669Z,81.20
2019-05-22T20:53:52.905Z,81.60
2019-05-22T20:56:08.544Z,81.60
2019-05-22T20:58:41.157Z,81.60
2019-05-22T21:01:09.016Z,81.60
2019-05-22T21:03:37.284Z,81.70
2019-05-22T21:06:08.227Z,81.70
2019-05-22T21:08:36.871Z,81.90
2019-05-22T21:11:05.398Z,81.90
2019-05-22T21:13:34.536Z,82.30
2019-05-22T21:16:03.508Z,82.30
2019-05-22T21:18:39.246Z,82.30
2019-05-22T21:21:07.906Z,82.80
2019-05-22T21:23:36.239Z,83.20
2019-05-22T21:26:05.064Z,83.70
2019-05-22T21:28:32.934Z,83.40
2019-05-22T21:31:02.385Z,83.70
2019-05-22T21:33:30.270Z,85.00
2019-05-22T21:35:58.431Z,84.40
2019-05-22T21:38:26.590Z,84.60
2019-05-22T21:40:54.729Z,85.00
2019-05-22T21:43:22.984Z,85.10
2019-05-22T21:45:51.065Z,86.40
2019-05-22T21:48:19.299Z,86.10
2019-05-22T21:50:47.169Z,86.20
2019-05-22T21:53:15.303Z,86.20
2019-05-22T21:55:45.667Z,86.50
2019-05-22T21:58:14.412Z,86.60
2019-05-22T22:00:45.522Z,86.90
2019-05-22T22:03:18.635Z,87.80
2019-05-22T22:05:46.866Z,87.50
2019-05-22T22:08:15.195Z,87.70
2019-05-22T22:10:43.058Z,87.80
2019-05-22T22:13:10.921Z,87.60
2019-05-22T22:15:43.184Z,88.00
2019-05-22T22:18:12.118Z,88.00
2019-05-22T22:20:40.356Z,88.10
2019-05-22T22:23:10.094Z,88.40
2019-05-22T22:25:38.531Z,88.30
2019-05-22T22:28:06.399Z,88.60
2019-05-22T22:30:35.901Z,88.80
2019-05-22T22:33:05.259Z,88.80
2019-05-22T22:35:33.490Z,88.80
2019-05-22T22:38:02.428Z,88.90
2019-05-22T22:40:30.411Z,88.80
2019-05-22T22:42:59.908Z,89.00
2019-05-22T22:45:33.718Z,89.00
2019-05-22T22:48:02.015Z,88.90
2019-05-22T22:50:31.150Z,89.10
2019-05-22T22:53:00.681Z,89.40
2019-05-22T22:55:29.613Z,89.70
2019-05-22T22:57:57.786Z,89.30
2019-05-22T23:00:27.414Z,89.70
2019-05-22T23:02:56.846Z,90.00
2019-05-22T23:05:25.189Z,90.20
2019-05-22T23:07:54.718Z,90.30
2019-05-22T23:10:23.687Z,90.60
2019-05-22T23:12:53.490Z,90.70
2019-05-22T23:15:22.072Z,90.90
2019-05-22T23:17:50.507Z,91.20
2019-05-22T23:20:17.774Z,91.20
2019-05-22T23:22:45.018Z,91.40
2019-05-22T23:25:12.887Z,91.50
2019-05-22T23:27:40.749Z,91.60
2019-05-22T23:30:10.786Z,91.70
2019-05-22T23:32:40.688Z,91.80
2019-05-22T23:35:08.834Z,91.60
2019-05-22T23:37:37.058Z,92.10
2019-05-22T23:40:06.994Z,92.30
2019-05-22T23:42:37.971Z,92.20
2019-05-22T23:45:07.574Z,92.40
2019-05-22T23:47:36.918Z,92.50
2019-05-22T23:50:07.054Z,92.60
2019-05-22T23:52:35.293Z,93.00
2019-05-22T23:55:03.527Z,93.00
2019-05-22T23:57:32.062Z,93.10
